createdAt,value
2018-03-14T00:01:07.111Z,96.15
2018-03-14T00:03:32.942Z,96.03
2018-03-14T00:05:58.748Z,96.72
2018-03-14T00:08:24.567Z,95.45
2018-03-14T00:10:50.671Z,96.27
2018-03-14T00:13:16.537Z,95.73
2018-03-14T00:15:42.364Z,95.36
2018-03-14T00:18:08.179Z,95.41
2018-03-14T00:20:33.990Z,95.86
2018-03-14T00:22:59.782Z,96.12
2018-03-14T00:25:25.604Z,95.53
2018-03-14T00:27:51.424Z,96.10
2018-03-14T00:30:17.267Z,96.08
2018-03-14T00:32:43.091Z,95.53
2018-03-14T00:35:08.952Z,95.09
2018-03-14T00:37:34.804Z,95.81
2018-03-14T00:40:00.621Z,95.29
2018-03-14T00:42:26.410Z,95.28
2018-03-14T00:44:52.246Z,95.68
2018-03-14T00:47:18.051Z,95.58
2018-03-14T00:49:43.873Z,94.94
2018-03-14T00:52:09.728Z,95.00
2018-03-14T00:54:35.660Z,95.20
2018-03-14T00:57:01.503Z,94.94
2018-03-14T00:59:28.159Z,95.27
2018-03-14T01:01:53.980Z,95.71
2018-03-14T01:04:19.847Z,94.96
2018-03-14T01:06:45.740Z,94.95
2018-03-14T01:09:11.533Z,95.32
2018-03-14T01:11:37.323Z,95.14
2018-03-14T01:14:03.123Z,95.40
2018-03-14T01:16:28.911Z,95.36
2018-03-14T01:18:54.724Z,95.00
2018-03-14T01:21:20.582Z,95.08
2018-03-14T01:23:46.310Z,95.32
2018-03-14T01:26:12.123Z,94.83
2018-03-14T01:28:37.902Z,94.86
2018-03-14T01:31:03.697Z,95.57
2018-03-14T01:33:29.493Z,95.85
2018-03-14T01:35:55.282Z,96.55
2018-03-14T01:38:21.067Z,96.59
2018-03-14T01:40:46.896Z,95.09
2018-03-14T01:43:12.696Z,95.59
2018-03-14T01:45:38.492Z,96.15
2018-03-14T01:48:04.307Z,96.12
2018-03-14T01:50:30.086Z,95.85
2018-03-14T01:53:08.294Z,95.50
2018-03-14T01:55:34.110Z,95.00
2018-03-14T01:57:59.910Z,95.24
2018-03-14T02:00:25.717Z,95.12
2018-03-14T02:02:51.566Z,95.24
2018-03-14T02:05:17.316Z,94.88
2018-03-14T02:07:43.168Z,94.61
2018-03-14T02:10:08.983Z,94.89
2018-03-14T02:12:34.799Z,95.17
2018-03-14T02:15:00.600Z,95.58
2018-03-14T02:17:26.407Z,94.73
2018-03-14T02:19:52.267Z,94.85
2018-03-14T02:22:18.083Z,94.84
2018-03-14T02:24:43.917Z,94.49
2018-03-14T02:27:09.714Z,94.48
2018-03-14T02:29:35.530Z,94.79
2018-03-14T02:32:01.340Z,94.75
2018-03-14T02:34:27.126Z,95.25
2018-03-14T02:37:00.143Z,94.99
2018-03-14T02:41:58.498Z,94.46
2018-03-14T02:44:24.288Z,95.16
2018-03-14T02:46:50.082Z,94.72
2018-03-14T02:49:15.890Z,94.80
2018-03-14T02:51:41.668Z,94.46
2018-03-14T02:54:07.455Z,94.68
2018-03-14T02:56:33.230Z,94.49
2018-03-14T02:58:59.033Z,93.58
2018-03-14T03:01:24.817Z,93.71
2018-03-14T03:03:50.596Z,93.15
2018-03-14T03:06:16.401Z,93.32
2018-03-14T03:08:42.228Z,94.58
2018-03-14T03:11:08.031Z,93.36
2018-03-14T03:13:33.816Z,93.42
2018-03-14T03:15:59.652Z,92.06
2018-03-14T03:18:25.447Z,92.46
2018-03-14T03:20:51.244Z,92.58
2018-03-14T03:23:17.059Z,92.31
2018-03-14T03:25:42.850Z,92.01
2018-03-14T03:28:08.635Z,91.67
2018-03-14T03:30:34.441Z,91.94
2018-03-14T03:33:00.220Z,92.39
2018-03-14T03:35:26.014Z,91.64
2018-03-14T03:37:51.851Z,91.07
2018-03-14T03:40:17.645Z,91.29
2018-03-14T03:42:43.434Z,90.95
2018-03-14T03:45:09.258Z,90.95
2018-03-14T03:47:35.065Z,91.26
2018-03-14T03:50:00.844Z,91.48
2018-03-14T03:52:26.659Z,90.58
2018-03-14T03:54:52.488Z,90.31
2018-03-14T03:57:18.291Z,90.43
2018-03-14T03:59:44.118Z,90.61
2018-03-14T04:02:09.923Z,90.50
2018-03-14T04:04:35.716Z,90.21
2018-03-14T04:07:01.524Z,91.19
2018-03-14T04:09:27.342Z,90.38
2018-03-14T04:11:53.146Z,90.20
2018-03-14T04:14:18.939Z,90.56
2018-03-14T04:16:44.755Z,90.71
2018-03-14T04:19:10.538Z,90.70
2018-03-14T04:21:36.340Z,89.87
2018-03-14T04:24:02.124Z,90.09
2018-03-14T04:26:27.908Z,90.06
2018-03-14T04:28:53.718Z,89.68
2018-03-14T04:31:19.507Z,90.10
2018-03-14T04:33:45.311Z,90.27
2018-03-14T04:36:11.199Z,89.90
2018-03-14T04:38:36.984Z,90.66
2018-03-14T04:41:02.788Z,91.07
2018-03-14T04:43:28.575Z,90.82
2018-03-14T04:45:54.350Z,90.43
2018-03-14T04:48:20.139Z,91.46
2018-03-14T04:50:45.965Z,90.82
2018-03-14T04:53:11.750Z,90.47
2018-03-14T04:55:37.549Z,90.55
2018-03-14T04:58:03.366Z,90.03
2018-03-14T05:00:29.182Z,90.54
2018-03-14T05:02:54.972Z,90.65
2018-03-14T05:05:20.775Z,91.82
2018-03-14T05:07:46.569Z,90.62
2018-03-14T05:10:12.351Z,89.84
2018-03-14T05:12:38.152Z,90.82
2018-03-14T05:15:03.962Z,90.21
2018-03-14T05:17:29.763Z,90.82
2018-03-14T05:19:55.555Z,90.71
2018-03-14T05:22:21.371Z,91.04
2018-03-14T05:24:47.200Z,90.85
2018-03-14T05:27:13.002Z,90.59
2018-03-14T05:29:38.818Z,90.41
2018-03-14T05:32:04.928Z,90.98
2018-03-14T05:34:30.729Z,91.26
2018-03-14T05:36:56.526Z,90.07
2018-03-14T05:39:22.315Z,90.75
2018-03-14T05:41:48.173Z,90.87
2018-03-14T05:44:14.001Z,91.22
2018-03-14T05:46:39.813Z,91.85
2018-03-14T05:49:05.594Z,91.07
2018-03-14T05:51:31.411Z,92.07
2018-03-14T05:53:57.211Z,91.53
2018-03-14T05:56:23.016Z,91.43
2018-03-14T05:58:48.846Z,90.74
2018-03-14T06:01:14.788Z,91.57
2018-03-14T06:03:40.574Z,91.25
2018-03-14T06:06:06.370Z,90.82
2018-03-14T06:08:32.171Z,91.20
2018-03-14T06:10:57.958Z,90.99
2018-03-14T06:13:23.780Z,90.61
2018-03-14T06:15:49.576Z,91.00
2018-03-14T06:18:15.380Z,91.14
2018-03-14T06:20:41.201Z,90.89
2018-03-14T06:23:06.980Z,90.41
2018-03-14T06:25:32.782Z,92.08
2018-03-14T06:27:58.582Z,91.15
2018-03-14T06:30:24.364Z,90.79
2018-03-14T06:32:50.150Z,92.25
2018-03-14T06:35:15.953Z,88.85
2018-03-14T06:37:41.747Z,89.60
2018-03-14T06:40:07.568Z,90.65
2018-03-14T06:42:33.383Z,93.79
2018-03-14T06:44:59.194Z,91.55
2018-03-14T06:47:24.995Z,91.07
2018-03-14T06:49:50.812Z,90.44
2018-03-14T06:52:16.603Z,92.14
2018-03-14T06:54:42.378Z,88.88
2018-03-14T06:57:08.195Z,88.29
2018-03-14T06:59:46.428Z,88.24
2018-03-14T07:02:24.488Z,91.96
2018-03-14T07:05:02.765Z,87.28
2018-03-14T07:07:28.594Z,88.76
2018-03-14T07:09:54.392Z,87.72
2018-03-14T07:12:20.191Z,87.95
2018-03-14T07:14:46.366Z,87.75
2018-03-14T07:17:12.165Z,90.87
2018-03-14T07:19:37.967Z,89.74
2018-03-14T07:22:03.758Z,88.09
2018-03-14T07:24:29.854Z,88.70
2018-03-14T07:26:55.644Z,88.47
2018-03-14T07:29:21.439Z,89.62
2018-03-14T07:31:47.286Z,89.62
2018-03-14T07:34:13.037Z,89.99
2018-03-14T07:36:38.849Z,89.75
2018-03-14T07:39:04.674Z,90.69
2018-03-14T07:41:30.465Z,89.66
2018-03-14T07:43:56.260Z,89.22
2018-03-14T07:46:22.090Z,88.40
2018-03-14T07:48:47.889Z,89.90
2018-03-14T07:51:14.057Z,93.70
2018-03-14T07:53:40.667Z,87.63
2018-03-14T07:56:06.464Z,88.78
2018-03-14T07:58:32.278Z,87.50
2018-03-14T08:00:58.071Z,89.05
2018-03-14T08:03:23.992Z,88.54
2018-03-14T08:05:49.981Z,85.98
2018-03-14T08:08:16.746Z,87.88
2018-03-14T08:10:43.546Z,87.19
2018-03-14T08:13:10.490Z,86.64
2018-03-14T08:15:36.345Z,85.98
2018-03-14T08:18:02.173Z,83.23
2018-03-14T08:20:28.381Z,86.80
2018-03-14T08:22:54.209Z,85.21
2018-03-14T08:25:20.065Z,84.00
2018-03-14T08:27:45.893Z,82.47
2018-03-14T08:30:11.699Z,82.35
2018-03-14T08:32:37.486Z,83.20
2018-03-14T08:35:03.766Z,81.17
2018-03-14T08:37:29.639Z,79.80
2018-03-14T08:39:55.452Z,79.05
2018-03-14T08:42:21.466Z,77.61
2018-03-14T08:44:47.308Z,76.24
2018-03-14T08:47:13.121Z,77.34
2018-03-14T08:49:38.954Z,76.64
2018-03-14T08:52:04.868Z,77.77
2018-03-14T08:54:30.696Z,78.38
2018-03-14T08:56:56.501Z,77.45
2018-03-14T08:59:22.426Z,76.87
2018-03-14T09:01:48.287Z,77.22
2018-03-14T09:04:14.108Z,77.60
2018-03-14T09:06:40.091Z,75.54
2018-03-14T09:09:05.908Z,76.90
2018-03-14T09:11:32.113Z,75.01
2018-03-14T09:13:57.924Z,75.33
2018-03-14T09:16:23.711Z,72.97
2018-03-14T09:18:49.511Z,72.08
2018-03-14T09:21:15.311Z,73.28
2018-03-14T09:23:41.127Z,74.57
2018-03-14T09:26:06.947Z,71.53
2018-03-14T09:28:32.743Z,71.87
2018-03-14T09:30:58.664Z,71.13
2018-03-14T09:33:24.535Z,70.30
2018-03-14T09:35:50.777Z,70.58
2018-03-14T09:38:16.751Z,69.91
2018-03-14T09:40:43.289Z,69.48
2018-03-14T09:43:09.133Z,70.73
2018-03-14T09:45:34.952Z,72.95
2018-03-14T09:48:00.743Z,73.47
2018-03-14T09:50:27.553Z,72.26
2018-03-14T09:52:53.361Z,71.57
2018-03-14T09:55:19.209Z,69.80
2018-03-14T09:57:45.060Z,70.09
2018-03-14T10:00:10.892Z,72.29
2018-03-14T10:02:36.730Z,72.41
2018-03-14T10:05:02.587Z,71.08
2018-03-14T10:07:28.408Z,71.03
2018-03-14T10:09:54.237Z,71.11
2018-03-14T10:12:20.048Z,70.47
2018-03-14T10:14:46.238Z,71.97
2018-03-14T10:17:12.203Z,70.91
2018-03-14T10:19:38.006Z,71.10
2018-03-14T10:22:03.810Z,72.97
2018-03-14T10:24:29.643Z,72.31
2018-03-14T10:26:55.474Z,72.77
2018-03-14T10:29:21.319Z,71.98
2018-03-14T10:31:47.150Z,71.16
2018-03-14T10:34:12.960Z,70.54
2018-03-14T10:36:38.759Z,70.36
2018-03-14T10:39:04.620Z,70.50
2018-03-14T10:41:30.438Z,71.55
2018-03-14T10:43:56.800Z,72.40
2018-03-14T10:46:23.628Z,73.34
2018-03-14T10:48:49.431Z,70.15
2018-03-14T10:51:20.129Z,69.69
2018-03-14T10:53:46.822Z,69.75
2018-03-14T10:56:12.634Z,68.18
2018-03-14T10:58:38.467Z,69.06
2018-03-14T11:01:09.182Z,70.51
2018-03-14T11:03:35.763Z,69.33
2018-03-14T11:06:13.925Z,69.21
2018-03-14T11:09:07.070Z,69.17
2018-03-14T11:11:47.267Z,69.21
2018-03-14T11:14:26.746Z,72.00
2018-03-14T11:17:09.223Z,72.23
2018-03-14T11:20:02.995Z,71.16
2018-03-14T11:22:42.147Z,70.81
2018-03-14T11:25:22.379Z,71.82
2018-03-14T11:28:01.435Z,71.55
2018-03-14T11:30:40.564Z,71.68
2018-03-14T11:33:07.245Z,71.87
2018-03-14T11:35:33.086Z,70.45
2018-03-14T11:37:58.910Z,71.39
2018-03-14T11:40:25.380Z,69.73
2018-03-14T11:42:51.192Z,69.28
2018-03-14T11:45:17.826Z,69.64
2018-03-14T11:47:44.000Z,67.87
2018-03-14T11:50:09.816Z,67.92
2018-03-14T11:52:35.624Z,68.18
2018-03-14T11:55:01.481Z,69.65
2018-03-14T11:57:27.599Z,69.85
2018-03-14T11:59:53.505Z,70.22
2018-03-14T12:02:19.328Z,69.55
2018-03-14T12:04:45.145Z,70.74
2018-03-14T12:07:10.936Z,71.00
2018-03-14T12:09:36.740Z,69.99
2018-03-14T12:12:02.556Z,70.56
2018-03-14T12:14:28.353Z,69.46
2018-03-14T12:16:54.151Z,69.97
2018-03-14T12:19:19.968Z,68.29
2018-03-14T12:21:45.787Z,69.02
2018-03-14T12:24:12.005Z,69.48
2018-03-14T12:26:37.830Z,68.98
2018-03-14T12:29:03.660Z,69.28
2018-03-14T12:31:29.482Z,69.21
2018-03-14T12:33:55.552Z,69.76
2018-03-14T12:36:21.392Z,68.60
2018-03-14T12:38:47.263Z,68.20
2018-03-14T12:41:13.099Z,69.46
2018-03-14T12:43:38.915Z,66.58
2018-03-14T12:46:04.715Z,68.96
2018-03-14T12:48:30.789Z,65.91
2018-03-14T12:50:56.907Z,65.98
2018-03-14T12:53:22.716Z,68.10
2018-03-14T12:55:48.523Z,67.35
2018-03-14T12:58:14.740Z,67.11
2018-03-14T13:00:40.604Z,67.26
2018-03-14T13:03:06.416Z,68.84
2018-03-14T13:05:32.248Z,68.71
2018-03-14T13:07:58.136Z,67.62
2018-03-14T13:10:24.045Z,69.81
2018-03-14T13:12:49.854Z,69.38
2018-03-14T13:15:15.671Z,69.21
2018-03-14T13:17:41.476Z,70.22
2018-03-14T13:20:07.653Z,70.13
2018-03-14T13:22:33.467Z,69.57
2018-03-14T13:24:59.255Z,69.21
2018-03-14T13:27:25.092Z,68.80
2018-03-14T13:29:50.892Z,69.84
2018-03-14T13:32:16.701Z,68.61
2018-03-14T13:34:42.758Z,68.57
2018-03-14T13:37:08.559Z,70.32
2018-03-14T13:39:34.411Z,70.64
2018-03-14T13:42:00.232Z,69.71
2018-03-14T13:44:26.028Z,80.51
2018-03-14T13:46:51.824Z,67.99
2018-03-14T13:49:18.095Z,70.85
2018-03-14T13:51:43.943Z,70.93
2018-03-14T13:54:09.764Z,71.12
2018-03-14T13:56:35.576Z,73.16
2018-03-14T13:59:01.392Z,70.15
2018-03-14T14:01:27.192Z,70.15
2018-03-14T14:03:53.048Z,68.82
2018-03-14T14:06:18.870Z,68.61
2018-03-14T14:08:44.688Z,68.88
2018-03-14T14:11:10.641Z,69.74
2018-03-14T14:13:36.434Z,69.42
2018-03-14T14:16:02.321Z,70.52
2018-03-14T14:18:28.153Z,71.30
2018-03-14T14:20:54.040Z,68.21
2018-03-14T14:23:19.906Z,68.23
2018-03-14T14:25:45.734Z,68.31
2018-03-14T14:28:11.574Z,69.05
2018-03-14T14:30:37.484Z,68.89
2018-03-14T14:33:03.297Z,69.74
2018-03-14T14:35:29.191Z,69.23
2018-03-14T14:37:54.987Z,69.49
2018-03-14T14:40:20.889Z,70.02
2018-03-14T14:42:46.762Z,70.67
2018-03-14T14:45:12.953Z,70.60
2018-03-14T14:47:38.814Z,71.08
2018-03-14T14:50:04.679Z,70.54
2018-03-14T14:52:30.472Z,70.60
2018-03-14T14:54:56.606Z,70.87
2018-03-14T14:57:22.433Z,71.75
2018-03-14T14:59:48.246Z,72.09
2018-03-14T15:02:14.272Z,71.15
2018-03-14T15:04:40.102Z,69.84
2018-03-14T15:07:05.913Z,70.59
2018-03-14T15:09:31.702Z,70.44
2018-03-14T15:11:57.483Z,71.79
2018-03-14T15:14:23.305Z,72.36
2018-03-14T15:16:49.100Z,71.47
2018-03-14T15:19:14.902Z,71.44
2018-03-14T15:21:40.696Z,70.96
2018-03-14T15:24:06.502Z,71.37
2018-03-14T15:26:32.296Z,70.21
2018-03-14T15:28:58.087Z,69.88
2018-03-14T15:31:23.992Z,70.67
2018-03-14T15:33:49.776Z,70.13
2018-03-14T15:36:15.559Z,70.51
2018-03-14T15:38:41.340Z,71.52
2018-03-14T15:41:07.160Z,71.12
2018-03-14T15:43:32.967Z,71.65
2018-03-14T15:45:58.767Z,71.71
2018-03-14T15:48:24.585Z,73.28
2018-03-14T15:50:50.744Z,72.11
2018-03-14T15:53:16.562Z,71.98
2018-03-14T15:55:42.464Z,74.60
2018-03-14T15:58:08.251Z,73.92
2018-03-14T16:00:34.046Z,74.10
2018-03-14T16:02:59.876Z,74.02
2018-03-14T16:05:25.705Z,73.43
2018-03-14T16:07:51.511Z,73.65
2018-03-14T16:10:17.611Z,73.36
2018-03-14T16:12:43.410Z,72.94
2018-03-14T16:15:09.199Z,74.85
2018-03-14T16:17:35.460Z,73.77
2018-03-14T16:20:01.304Z,73.72
2018-03-14T16:22:27.108Z,75.12
2018-03-14T16:24:52.943Z,74.31
2018-03-14T16:27:18.738Z,75.78
2018-03-14T16:29:44.535Z,75.33
2018-03-14T16:32:10.347Z,76.12
2018-03-14T16:34:36.133Z,75.84
2018-03-14T16:37:01.923Z,75.68
2018-03-14T16:39:27.731Z,76.01
2018-03-14T16:41:53.518Z,76.49
2018-03-14T16:44:19.312Z,75.15
2018-03-14T16:46:45.103Z,74.04
2018-03-14T16:49:10.903Z,75.12
2018-03-14T16:51:36.704Z,75.18
2018-03-14T16:54:02.507Z,74.47
2018-03-14T16:56:28.286Z,75.02
2018-03-14T16:58:54.099Z,74.94
2018-03-14T17:01:19.917Z,76.32
2018-03-14T17:03:45.723Z,76.38
2018-03-14T17:06:11.512Z,77.13
2018-03-14T17:08:37.321Z,78.12
2018-03-14T17:11:03.165Z,78.98
2018-03-14T17:13:28.955Z,79.84
2018-03-14T17:15:54.743Z,80.21
2018-03-14T17:18:20.544Z,80.75
2018-03-14T17:20:46.346Z,80.51
2018-03-14T17:23:12.152Z,80.47
2018-03-14T17:25:37.988Z,80.05
2018-03-14T17:28:03.847Z,79.11
2018-03-14T17:30:29.647Z,78.27
2018-03-14T17:32:55.481Z,78.34
2018-03-14T17:35:21.286Z,78.82
2018-03-14T17:37:47.081Z,79.74
2018-03-14T17:40:12.901Z,80.07
2018-03-14T17:42:38.698Z,80.26
2018-03-14T17:45:04.515Z,81.18
2018-03-14T17:47:30.331Z,81.82
2018-03-14T17:49:56.186Z,80.94
2018-03-14T17:52:21.989Z,81.22
2018-03-14T17:54:47.903Z,81.86
2018-03-14T17:57:13.778Z,81.38
2018-03-14T17:59:39.576Z,81.57
2018-03-14T18:02:05.376Z,82.32
2018-03-14T18:04:31.333Z,82.22
2018-03-14T18:06:57.121Z,82.59
2018-03-14T18:09:22.952Z,82.54
2018-03-14T18:11:49.246Z,84.61
2018-03-14T18:14:15.087Z,84.33
2018-03-14T18:16:41.442Z,81.63
2018-03-14T18:19:07.309Z,83.32
2018-03-14T18:21:33.163Z,82.24
2018-03-14T18:23:58.954Z,79.88
2018-03-14T18:26:25.063Z,80.77
2018-03-14T18:28:50.930Z,81.99
2018-03-14T18:31:16.825Z,81.82
2018-03-14T18:33:42.675Z,80.91
2018-03-14T18:36:08.456Z,81.37
2018-03-14T18:38:34.266Z,81.56
2018-03-14T18:41:00.110Z,81.55
2018-03-14T18:43:27.004Z,79.85
2018-03-14T18:45:52.806Z,81.92
2018-03-14T18:48:18.644Z,81.69
2018-03-14T18:50:44.573Z,80.97
2018-03-14T18:53:10.400Z,81.85
2018-03-14T18:55:36.234Z,81.91
2018-03-14T18:58:02.049Z,82.01
2018-03-14T19:00:27.853Z,82.21
2018-03-14T19:02:53.674Z,82.85
2018-03-14T19:05:19.470Z,83.63
2018-03-14T19:07:45.448Z,83.86
2018-03-14T19:10:11.256Z,83.60
2018-03-14T19:12:37.067Z,83.54
2018-03-14T19:15:02.943Z,83.57
2018-03-14T19:17:28.742Z,83.77
2018-03-14T19:19:54.611Z,83.74
2018-03-14T19:22:20.533Z,83.83
2018-03-14T19:24:46.453Z,83.48
2018-03-14T19:27:12.288Z,83.95
2018-03-14T19:29:38.164Z,84.79
2018-03-14T19:32:03.986Z,84.48
2018-03-14T19:34:29.795Z,84.45
2018-03-14T19:36:55.633Z,84.51
2018-03-14T19:39:21.964Z,85.00
2018-03-14T19:41:47.795Z,84.71
2018-03-14T19:44:13.656Z,85.18
2018-03-14T19:46:39.754Z,85.21
2018-03-14T19:49:05.580Z,85.00
2018-03-14T19:51:31.392Z,85.47
2018-03-14T19:53:57.180Z,85.18
2018-03-14T19:56:23.030Z,85.18
2018-03-14T19:58:48.807Z,85.38
2018-03-14T20:01:14.619Z,85.16
2018-03-14T20:03:40.614Z,85.58
2018-03-14T20:06:07.354Z,85.71
2018-03-14T20:08:33.196Z,85.64
2018-03-14T20:10:59.016Z,86.00
2018-03-14T20:13:25.167Z,86.03
2018-03-14T20:15:51.018Z,86.06
2018-03-14T20:18:16.867Z,86.54
2018-03-14T20:20:42.701Z,86.35
2018-03-14T20:23:08.526Z,86.52
2018-03-14T20:25:34.356Z,86.53
2018-03-14T20:28:00.203Z,86.47
2018-03-14T20:30:26.027Z,86.54
2018-03-14T20:32:51.875Z,86.84
2018-03-14T20:35:17.859Z,87.04
2018-03-14T20:37:43.872Z,86.99
2018-03-14T20:40:09.705Z,86.96
2018-03-14T20:42:35.500Z,86.87
2018-03-14T20:45:02.438Z,87.26
2018-03-14T20:47:28.227Z,86.81
2018-03-14T20:49:54.024Z,86.83
2018-03-14T20:52:20.155Z,86.77
2018-03-14T20:54:46.004Z,86.72
2018-03-14T20:57:11.795Z,86.91
2018-03-14T20:59:37.870Z,87.03
2018-03-14T21:02:03.697Z,87.32
2018-03-14T21:04:29.502Z,87.19
2018-03-14T21:06:55.338Z,87.62
2018-03-14T21:09:21.176Z,88.83
2018-03-14T21:11:47.004Z,90.62
2018-03-14T21:14:12.817Z,91.51
2018-03-14T21:16:39.599Z,88.19
2018-03-14T21:19:05.412Z,87.17
2018-03-14T21:21:31.230Z,86.66
2018-03-14T21:23:57.039Z,86.87
2018-03-14T21:26:22.837Z,87.22
2018-03-14T21:28:48.684Z,88.72
2018-03-14T21:31:14.577Z,87.60
2018-03-14T21:33:40.306Z,87.60
2018-03-14T21:36:06.983Z,86.68
2018-03-14T21:38:32.795Z,88.94
2018-03-14T21:40:58.799Z,86.93
2018-03-14T21:43:24.591Z,88.20
2018-03-14T21:45:50.404Z,87.01
2018-03-14T21:48:16.259Z,85.96
2018-03-14T21:50:42.077Z,86.41
2018-03-14T21:53:07.906Z,86.14
2018-03-14T21:55:38.485Z,85.43
2018-03-14T21:58:04.300Z,85.69
2018-03-14T22:00:30.136Z,84.69
2018-03-14T22:02:55.984Z,85.38
2018-03-14T22:05:22.296Z,84.88
2018-03-14T22:07:48.107Z,86.25
2018-03-14T22:10:14.030Z,85.89
2018-03-14T22:12:39.908Z,84.61
2018-03-14T22:15:06.393Z,84.79
2018-03-14T22:17:32.245Z,85.14
2018-03-14T22:19:58.065Z,84.32
2018-03-14T22:22:23.885Z,83.94
2018-03-14T22:24:50.063Z,84.58
2018-03-14T22:27:15.977Z,85.48
2018-03-14T22:29:42.055Z,85.47
2018-03-14T22:32:07.857Z,85.64
2018-03-14T22:34:33.664Z,86.41
2018-03-14T22:36:59.539Z,86.62
2018-03-14T22:39:25.353Z,86.32
2018-03-14T22:41:51.206Z,86.10
2018-03-14T22:44:17.023Z,86.64
2018-03-14T22:46:42.839Z,85.10
2018-03-14T22:49:08.686Z,86.91
2018-03-14T22:51:34.524Z,86.12
2018-03-14T22:54:01.239Z,86.40
2018-03-14T22:56:27.718Z,86.15
2018-03-14T22:58:53.623Z,85.16
2018-03-14T23:01:19.463Z,85.35
2018-03-14T23:03:45.262Z,85.83
2018-03-14T23:06:12.097Z,85.91
2018-03-14T23:08:37.894Z,86.32
2018-03-14T23:11:03.705Z,86.70
2018-03-14T23:13:29.533Z,87.07
2018-03-14T23:15:55.341Z,87.54
2018-03-14T23:18:21.228Z,87.81
2018-03-14T23:20:47.053Z,87.44
2018-03-14T23:23:12.937Z,87.76
2018-03-14T23:25:38.740Z,87.86
2018-03-14T23:28:04.583Z,88.34
2018-03-14T23:30:30.384Z,88.83
2018-03-14T23:32:56.170Z,88.12
2018-03-14T23:35:22.202Z,88.43
2018-03-14T23:37:48.003Z,88.43
2018-03-14T23:40:13.808Z,88.96
2018-03-14T23:42:39.717Z,89.18
2018-03-14T23:45:05.515Z,88.80
2018-03-14T23:47:31.337Z,89.52
2018-03-14T23:49:57.176Z,89.11
2018-03-14T23:52:22.972Z,89.04
2018-03-14T23:54:48.768Z,89.46
2018-03-14T23:57:14.584Z,89.47
2018-03-14T23:59:40.383Z,88.89
